Time;durP1;ratioP1;P1;durP2;ratioP2;P2;SDS_P1;SDS_P2;PMS_P1;PMS_P2;Temp;Humidity;BMP_temperature;BMP_pressure;BME280_temperature;BME280_humidity;BME280_pressure;Samples;Min_cycle;Max_cycle;Signal;HPM_P1;HPM_P2
2021/04/17 00:01:49;;;;;;;9.73;5.80;;;;;;;6.65;67.44;100791.75;5110746;27;20865;-80
2021/04/17 00:04:38;;;;;;;7.78;5.80;;;;;;;6.63;67.38;100801.66;5110866;27;20355;-80
2021/04/17 00:07:21;;;;;;;7.85;5.40;;;;;;;6.49;67.31;100792.72;5083800;27;1457895;-81
2021/04/17 00:10:01;;;;;;;7.85;5.88;;;;;;;6.36;67.66;100794.50;5090863;28;20386;-80
2021/04/17 00:12:45;;;;;;;11.40;5.75;;;;;;;6.30;67.96;100788.66;5110691;27;20369;-79
2021/04/17 00:15:29;;;;;;;9.80;5.80;;;;;;;6.27;67.64;100783.56;5110967;27;20469;-80
2021/04/17 00:18:14;;;;;;;8.48;6.15;;;;;;;6.20;67.78;100777.72;5069894;28;20371;-80
2021/04/17 00:20:59;;;;;;;9.15;6.15;;;;;;;6.23;67.85;100782.00;5110392;27;20367;-80
2021/04/17 00:23:44;;;;;;;10.00;6.30;;;;;;;6.04;68.28;100771.66;5110936;27;20739;-79
2021/04/17 00:26:28;;;;;;;8.68;6.40;;;;;;;6.09;68.33;100772.25;5111094;27;20351;-81
2021/04/17 00:29:12;;;;;;;9.60;6.82;;;;;;;6.05;68.52;100773.34;5110515;27;20373;-82
2021/04/17 00:31:53;;;;;;;7.35;5.78;;;;;;;6.07;68.89;100766.16;5071691;28;20357;-82
2021/04/17 00:34:37;;;;;;;9.43;5.68;;;;;;;6.20;68.28;100772.41;5111688;27;20357;-80
2021/04/17 00:37:18;;;;;;;8.43;5.95;;;;;;;6.09;68.20;100772.25;5071120;27;20781;-80
2021/04/17 00:40:02;;;;;;;7.50;5.97;;;;;;;6.07;68.14;100759.97;5112091;27;20358;-81
2021/04/17 00:42:46;;;;;;;8.40;5.88;;;;;;;5.90;68.19;100756.53;5110469;27;20377;-82
2021/04/17 00:45:30;;;;;;;9.93;5.78;;;;;;;5.86;68.46;100754.16;5069728;28;20890;-81
2021/04/17 00:48:13;;;;;;;12.73;5.70;;;;;;;5.78;68.51;100743.06;5051167;28;20865;-80
2021/04/17 00:50:56;;;;;;;10.13;6.40;;;;;;;5.69;68.72;100744.50;5070765;28;20371;-80
2021/04/17 00:53:41;;;;;;;9.05;5.50;;;;;;;5.67;68.59;100741.09;5110756;27;20366;-80
2021/04/17 00:56:26;;;;;;;8.45;5.55;;;;;;;5.49;69.06;100744.88;5111249;27;20399;-80
2021/04/17 00:59:10;;;;;;;10.82;5.93;;;;;;;5.36;69.67;100746.53;5091830;27;20378;-80
2021/04/17 01:01:51;;;;;;;11.20;6.65;;;;;;;5.25;69.86;100747.22;5052263;28;20367;-83
2021/04/17 01:04:41;;;;;;;10.35;6.10;;;;;;;5.16;70.42;100746.91;5051492;28;20366;-82
2021/04/17 01:08:03;;;;;;;7.03;5.50;;;;;;;5.09;70.61;100748.19;5069269;28;20372;-82
2021/04/17 01:11:18;;;;;;;9.95;6.18;;;;;;;5.06;70.97;100743.91;5055226;28;20048;-82
2021/04/17 01:14:23;;;;;;;8.02;5.93;;;;;;;5.11;70.48;100747.16;5055137;28;20060;-82
2021/04/17 01:17:27;;;;;;;9.50;5.47;;;;;;;5.16;70.31;100746.91;5055694;28;20566;-82
2021/04/17 01:20:50;;;;;;;9.30;5.93;;;;;;;5.16;69.77;100741.59;5055669;28;20045;-82
2021/04/17 01:24:00;;;;;;;9.20;5.25;;;;;;;5.01;69.74;100738.00;5055473;28;20048;-79
2021/04/17 01:27:06;;;;;;;9.18;5.95;;;;;;;4.96;69.68;100736.56;5043985;28;20499;-81
2021/04/17 01:30:16;;;;;;;9.60;5.45;;;;;;;4.88;69.69;100736.16;5054958;28;20455;-81
2021/04/17 01:33:25;;;;;;;7.93;5.22;;;;;;;4.83;69.85;100741.75;5055576;28;20052;-80
2021/04/17 01:36:32;;;;;;;8.68;5.20;;;;;;;4.81;69.59;100735.66;5055309;28;20145;-82
2021/04/17 01:39:38;;;;;;;8.52;5.88;;;;;;;4.85;69.50;100736.34;5055637;28;20470;-80
2021/04/17 01:42:44;;;;;;;7.38;5.60;;;;;;;4.85;69.28;100723.03;5055099;28;20048;-80
2021/04/17 01:45:49;;;;;;;9.38;5.65;;;;;;;4.86;69.36;100724.75;5077133;28;20047;-79
2021/04/17 01:48:35;;;;;;;8.27;5.72;;;;;;;4.91;69.06;100718.22;5110523;27;20400;-80
2021/04/17 01:51:22;;;;;;;9.38;5.55;;;;;;;4.90;69.08;100726.28;5091892;27;20397;-81
2021/04/17 01:54:14;;;;;;;9.30;5.40;;;;;;;4.92;69.10;100719.06;5131770;27;20341;-81
2021/04/17 01:57:01;;;;;;;11.50;5.50;;;;;;;4.94;69.02;100720.69;5110605;27;20367;-80
2021/04/17 01:59:47;;;;;;;14.45;5.68;;;;;;;4.89;69.26;100713.94;5070681;28;20389;-80
2021/04/17 02:02:32;;;;;;;8.15;5.32;;;;;;;4.92;69.21;100724.38;5130455;27;20352;-81
2021/04/17 02:05:13;;;;;;;9.60;5.22;;;;;;;4.90;69.20;100719.16;5111620;27;20355;-79
2021/04/17 02:07:58;;;;;;;8.45;5.75;;;;;;;5.00;69.28;100717.69;5051519;28;20372;-81
2021/04/17 02:10:45;;;;;;;9.85;5.75;;;;;;;4.98;68.86;100713.41;5111039;27;20359;-80
2021/04/17 02:13:30;;;;;;;9.68;5.32;;;;;;;4.99;68.69;100709.78;5070444;28;20369;-80
2021/04/17 02:16:25;;;;;;;9.52;5.38;;;;;;;5.01;68.98;100714.06;5070583;28;20357;-81
2021/04/17 02:19:13;;;;;;;10.82;6.32;;;;;;;5.02;68.73;100712.25;5093117;27;1192255;-82
2021/04/17 02:21:58;;;;;;;8.15;4.72;;;;;;;4.97;68.33;100711.66;5111015;27;20362;-78
2021/04/17 02:24:42;;;;;;;7.82;5.65;;;;;;;4.95;68.81;100711.78;5070785;28;20720;-81
2021/04/17 02:27:27;;;;;;;7.82;5.22;;;;;;;4.92;68.61;100708.44;5090342;28;20870;-82
2021/04/17 02:30:11;;;;;;;10.23;5.57;;;;;;;4.94;68.62;100706.53;5051407;28;20366;-81
2021/04/17 02:32:58;;;;;;;6.97;4.95;;;;;;;4.99;68.37;100707.13;5070739;28;20369;-81
2021/04/17 02:35:38;;;;;;;7.70;4.93;;;;;;;4.93;68.32;100704.84;5090996;27;20364;-82
2021/04/17 02:38:22;;;;;;;10.95;5.05;;;;;;;4.98;68.23;100708.06;5071412;28;20712;-82
2021/04/17 02:41:06;;;;;;;8.80;5.60;;;;;;;4.89;67.90;100711.28;5112268;27;20886;-80
2021/04/17 02:43:49;;;;;;;10.30;5.63;;;;;;;4.77;67.73;100704.00;5115281;27;20919;-81
2021/04/17 02:46:33;;;;;;;8.57;4.82;;;;;;;4.63;67.80;100710.13;5072394;28;20870;-80
2021/04/17 02:49:13;;;;;;;9.35;5.18;;;;;;;4.67;67.90;100709.00;5107192;27;20407;-80
2021/04/17 02:51:57;;;;;;;10.02;5.05;;;;;;;4.59;68.13;100706.78;5111033;27;20870;-81
2021/04/17 02:54:41;;;;;;;6.70;4.80;;;;;;;4.63;67.92;100711.94;5111107;27;20358;-81
2021/04/17 02:57:25;;;;;;;10.25;5.10;;;;;;;4.60;67.83;100705.00;5110472;27;20746;-81
2021/04/17 03:00:08;;;;;;;8.98;5.03;;;;;;;4.63;67.73;100696.84;5103318;27;20352;-80
2021/04/17 03:02:52;;;;;;;6.70;4.95;;;;;;;4.62;67.77;100699.59;5111050;27;20128;-79
2021/04/17 03:05:38;;;;;;;6.93;4.70;;;;;;;4.65;67.73;100702.06;5110189;27;20369;-80
2021/04/17 03:08:23;;;;;;;8.20;4.85;;;;;;;4.60;67.50;100700.53;5109611;27;20379;-81
2021/04/17 03:11:07;;;;;;;9.07;4.60;;;;;;;4.55;67.69;100694.63;5069245;28;20368;-80
2021/04/17 03:13:52;;;;;;;7.15;5.28;;;;;;;4.42;67.95;100687.47;5109531;27;20761;-79
2021/04/17 03:16:37;;;;;;;5.70;4.57;;;;;;;4.37;68.07;100686.88;5111090;27;20363;-81
2021/04/17 03:19:22;;;;;;;8.38;5.28;;;;;;;4.38;68.28;100686.75;5071205;28;20352;-80
2021/04/17 03:22:07;;;;;;;8.95;4.97;;;;;;;4.35;68.54;100686.94;5110408;27;20377;-82
2021/04/17 03:24:50;;;;;;;9.70;5.13;;;;;;;4.36;68.39;100682.47;5111232;27;20354;-80
2021/04/17 03:27:34;;;;;;;7.40;4.85;;;;;;;4.39;68.45;100688.50;5111582;27;20366;-80
2021/04/17 03:30:17;;;;;;;10.82;5.20;;;;;;;4.35;68.25;100684.28;5092587;27;20382;-80
2021/04/17 03:32:59;;;;;;;7.97;4.70;;;;;;;4.32;68.24;100673.81;5111735;27;20367;-78
2021/04/17 03:35:42;;;;;;;8.10;5.20;;;;;;;4.20;68.55;100682.47;5111093;27;20351;-80
2021/04/17 03:38:26;;;;;;;8.48;5.47;;;;;;;4.12;69.13;100686.53;5111411;27;20852;-81
2021/04/17 03:41:10;;;;;;;7.30;5.25;;;;;;;4.14;69.09;100685.50;5070879;27;20357;-80
2021/04/17 03:43:53;;;;;;;9.05;4.95;;;;;;;4.03;69.24;100687.03;5070304;28;20697;-81
2021/04/17 03:46:35;;;;;;;6.30;5.05;;;;;;;4.08;69.05;100684.97;5117145;27;1094398;-80
2021/04/17 03:49:15;;;;;;;9.73;6.07;;;;;;;4.14;69.07;100684.63;5091445;27;20359;-80
2021/04/17 03:51:59;;;;;;;8.60;4.63;;;;;;;4.13;69.14;100689.09;5111432;27;20841;-79
2021/04/17 03:54:43;;;;;;;8.23;5.20;;;;;;;4.07;69.12;100686.78;5090458;27;20363;-80
2021/04/17 03:57:27;;;;;;;7.07;4.97;;;;;;;3.99;69.10;100688.16;5070462;28;20353;-80
2021/04/17 04:00:15;;;;;;;8.80;5.13;;;;;;;4.04;69.26;100691.41;5070520;28;20376;-83
2021/04/17 04:03:00;;;;;;;7.10;4.68;;;;;;;4.13;68.99;100693.53;5111339;27;20394;-82
2021/04/17 04:06:01;;;;;;;9.57;4.65;;;;;;;4.15;68.65;100695.16;5111500;27;20388;-81
2021/04/17 04:08:45;;;;;;;6.40;4.65;;;;;;;4.19;68.42;100690.56;5110519;27;20837;-81
2021/04/17 04:11:27;;;;;;;8.27;4.53;;;;;;;4.11;68.18;100680.34;5111059;27;20363;-81
2021/04/17 04:14:10;;;;;;;7.22;4.03;;;;;;;4.13;68.36;100689.09;5069984;28;20370;-80
2021/04/17 04:16:53;;;;;;;10.23;5.18;;;;;;;4.08;68.29;100688.50;5070519;28;20368;-80
2021/04/17 04:19:38;;;;;;;11.30;4.60;;;;;;;4.03;68.53;100687.03;5111555;27;20369;-79
2021/04/17 04:22:21;;;;;;;11.55;4.60;;;;;;;4.00;68.47;100682.75;5111200;27;20347;-78
2021/04/17 04:25:05;;;;;;;8.38;4.78;;;;;;;4.07;68.12;100694.75;5070144;28;20716;-79
2021/04/17 04:27:49;;;;;;;13.20;5.07;;;;;;;3.94;68.26;100696.38;5070812;28;20686;-78
2021/04/17 04:30:32;;;;;;;9.95;4.55;;;;;;;3.77;68.47;100704.41;5111426;27;20361;-81
2021/04/17 04:33:16;;;;;;;9.13;4.93;;;;;;;3.72;69.13;100701.13;5110685;27;20709;-79
2021/04/17 04:35:59;;;;;;;8.20;5.07;;;;;;;3.66;69.28;100704.13;5111246;27;20883;-80
2021/04/17 04:38:43;;;;;;;8.73;5.07;;;;;;;3.54;69.72;100699.47;5111579;27;20406;-80
2021/04/17 04:41:27;;;;;;;10.40;5.65;;;;;;;3.53;69.69;100698.59;5111026;27;20381;-80
2021/04/17 04:44:12;;;;;;;15.27;5.35;;;;;;;3.55;69.82;100706.50;5111540;27;20367;-79
2021/04/17 04:46:54;;;;;;;12.20;7.05;;;;;;;3.54;69.89;100702.97;5111858;27;20363;-80
2021/04/17 04:49:38;;;;;;;12.48;6.47;;;;;;;3.50;69.63;100711.19;5064751;28;20385;-79
2021/04/17 04:52:21;;;;;;;17.20;6.80;;;;;;;3.54;69.30;100710.06;5051366;28;20360;-79
2021/04/17 04:55:06;;;;;;;60.60;37.88;;;;;;;3.61;69.60;100711.47;5060666;27;20365;-81
2021/04/17 04:57:50;;;;;;;32.50;16.95;;;;;;;3.58;69.35;100709.00;5111807;27;20354;-81
2021/04/17 05:00:29;;;;;;;14.98;7.32;;;;;;;3.55;69.00;100714.47;5095104;27;20870;-80
2021/04/17 05:03:12;;;;;;;15.43;6.40;;;;;;;3.54;69.09;100715.38;5111320;27;20359;-79
2021/04/17 05:05:56;;;;;;;9.25;5.53;;;;;;;3.63;68.89;100720.22;5092419;27;20368;-80
2021/04/17 05:08:38;;;;;;;9.80;4.95;;;;;;;3.67;68.38;100719.09;5071128;28;20368;-81
2021/04/17 05:11:22;;;;;;;16.88;5.03;;;;;;;3.71;68.07;100715.34;5111712;27;20388;-79
2021/04/17 05:14:05;;;;;;;10.95;5.47;;;;;;;3.81;68.01;100716.56;5111155;27;20355;-80
2021/04/17 05:16:44;;;;;;;11.73;4.80;;;;;;;3.88;67.48;100712.63;5091660;27;20399;-82
2021/04/17 05:19:28;;;;;;;10.85;4.80;;;;;;;3.99;67.35;100720.00;5111107;27;20730;-79
2021/04/17 05:22:12;;;;;;;10.93;4.95;;;;;;;4.14;66.56;100717.38;5111383;27;20369;-80
2021/04/17 05:24:55;;;;;;;9.75;4.93;;;;;;;4.24;66.01;100715.94;5070644;28;20359;-80
2021/04/17 05:27:40;;;;;;;19.52;5.68;;;;;;;4.32;66.83;100715.50;5111138;27;20366;-79
2021/04/17 05:30:23;;;;;;;17.25;5.78;;;;;;;4.38;65.58;100713.34;5111115;27;20357;-80
2021/04/17 05:33:07;;;;;;;13.90;5.57;;;;;;;4.55;64.80;100710.56;5110854;27;20366;-80
2021/04/17 05:35:46;;;;;;;11.18;5.50;;;;;;;4.80;64.19;100703.84;5111121;27;20367;-80
2021/04/17 05:38:30;;;;;;;12.15;5.25;;;;;;;4.86;63.63;100703.50;5090740;27;20367;-80
2021/04/17 05:41:13;;;;;;;12.00;5.07;;;;;;;4.97;62.89;100707.22;5111181;27;20347;-81
2021/04/17 05:43:57;;;;;;;8.63;4.88;;;;;;;5.30;62.28;100706.16;5110946;27;20392;-79
2021/04/17 05:46:43;;;;;;;13.73;5.45;;;;;;;5.73;60.44;100700.75;5069976;28;20364;-81
2021/04/17 05:49:27;;;;;;;13.35;5.20;;;;;;;5.69;59.85;100707.22;5111929;27;20355;-82
2021/04/17 05:52:06;;;;;;;15.02;4.95;;;;;;;6.02;59.19;100700.78;5111197;27;20393;-80
2021/04/17 05:54:50;;;;;;;9.98;4.47;;;;;;;6.08;58.83;100703.03;5111242;27;20366;-82
2021/04/17 05:57:34;;;;;;;7.68;4.15;;;;;;;6.20;58.33;100704.91;5112067;27;20388;-82
2021/04/17 06:00:19;;;;;;;7.60;4.38;;;;;;;6.34;58.07;100700.44;5111767;27;20359;-81
2021/04/17 06:03:05;;;;;;;8.18;4.22;;;;;;;6.62;57.40;100699.44;5054076;28;20358;-81
2021/04/17 06:05:48;;;;;;;8.68;4.53;;;;;;;6.88;56.62;100690.59;5111075;27;20355;-81
2021/04/17 06:08:32;;;;;;;7.32;4.82;;;;;;;7.34;55.42;100704.31;5070492;28;20851;-81
2021/04/17 06:11:11;;;;;;;7.72;3.83;;;;;;;7.73;55.19;100693.53;5091976;27;20336;-81
2021/04/17 06:13:55;;;;;;;7.22;3.80;;;;;;;8.02;52.76;100693.28;5070036;28;20365;-80
2021/04/17 06:16:38;;;;;;;5.93;3.58;;;;;;;8.68;51.19;100693.72;5111583;27;20367;-80
2021/04/17 06:19:23;;;;;;;5.13;3.75;;;;;;;9.18;50.20;100689.03;5111646;27;20351;-81
2021/04/17 06:22:06;;;;;;;7.25;3.75;;;;;;;9.54;49.67;100692.41;5111589;27;20366;-81
2021/04/17 06:24:49;;;;;;;6.22;3.60;;;;;;;10.42;46.90;100696.03;5111178;27;20339;-81
2021/04/17 06:27:34;;;;;;;7.90;3.50;;;;;;;10.72;45.46;100684.63;5111205;27;20373;-82
2021/04/17 06:30:13;;;;;;;7.72;3.63;;;;;;;10.94;44.47;100685.38;5092448;27;20352;-81
2021/04/17 06:32:53;;;;;;;8.13;4.00;;;;;;;10.56;45.18;100692.25;5111036;27;20399;-80
2021/04/17 06:35:38;;;;;;;8.80;4.43;;;;;;;10.66;45.18;100686.00;5070671;28;20889;-80
2021/04/17 06:38:22;;;;;;;8.00;4.07;;;;;;;10.74;44.96;100686.19;5070426;28;20361;-80
2021/04/17 06:41:33;;;;;;;6.60;3.72;;;;;;;11.31;44.52;100685.78;5069549;28;20107;-81
2021/04/17 06:44:20;;;;;;;8.82;3.92;;;;;;;11.74;43.99;100688.34;5069776;28;20094;-81
2021/04/17 06:47:04;;;;;;;5.65;3.67;;;;;;;12.15;42.69;100679.31;5071227;28;20715;-81
2021/04/17 06:49:49;;;;;;;8.00;3.63;;;;;;;12.28;42.63;100677.25;5111058;27;20385;-81
2021/04/17 06:52:37;;;;;;;8.32;4.13;;;;;;;12.47;41.82;100671.88;5070648;28;20357;-82
2021/04/17 06:55:21;;;;;;;6.78;3.63;;;;;;;13.33;40.59;100661.16;5111098;27;20377;-81
2021/04/17 06:58:05;;;;;;;6.45;4.13;;;;;;;13.67;39.86;100670.44;5111018;27;20357;-81
2021/04/17 07:00:50;;;;;;;7.57;4.88;;;;;;;13.79;40.45;100663.03;5110537;27;20367;-82
2021/04/17 07:03:34;;;;;;;8.85;4.60;;;;;;;14.83;38.86;100655.34;5070253;28;20357;-81
2021/04/17 07:06:15;;;;;;;7.93;4.70;;;;;;;16.22;36.94;100661.53;5111213;27;20366;-82
2021/04/17 07:08:59;;;;;;;8.80;6.55;;;;;;;18.82;32.69;100642.94;5110741;27;20355;-81
2021/04/17 07:11:38;;;;;;;8.48;7.47;;;;;;;22.69;27.10;100647.38;5056066;28;20384;-82
2021/04/17 07:14:22;;;;;;;11.10;9.73;;;;;;;25.44;23.80;100630.22;5110452;27;20388;-83
2021/04/17 07:17:06;;;;;;;11.93;9.88;;;;;;;27.77;21.13;100629.31;5068483;27;20371;-80
2021/04/17 07:19:59;;;;;;;12.85;10.75;;;;;;;29.10;20.20;100628.28;5092091;27;20360;-82
2021/04/17 07:22:40;;;;;;;11.15;10.05;;;;;;;31.14;18.67;100629.88;5111971;27;20355;-83
2021/04/17 07:25:25;;;;;;;10.60;9.52;;;;;;;32.44;18.11;100638.34;5130353;27;20352;-83
2021/04/17 07:28:10;;;;;;;11.98;10.25;;;;;;;31.59;18.20;100632.22;5090392;27;20371;-82
2021/04/17 07:30:50;;;;;;;12.20;10.80;;;;;;;31.00;18.90;100637.78;5068552;28;20375;-84
2021/04/17 07:33:31;;;;;;;12.38;9.88;;;;;;;30.75;18.97;100630.00;5067451;27;20406;-84
2021/04/17 07:36:18;;;;;;;16.05;11.05;;;;;;;31.94;18.02;100624.16;5109025;27;20367;-80
2021/04/17 07:39:01;;;;;;;14.80;9.35;;;;;;;33.89;17.13;100624.97;5110644;27;20351;-82
2021/04/17 07:41:45;;;;;;;10.23;9.23;;;;;;;35.01;15.99;100629.84;5070165;28;20368;-82
2021/04/17 07:44:30;;;;;;;11.07;8.98;;;;;;;32.79;16.75;100629.31;5111192;27;20365;-81
2021/04/17 07:47:31;;;;;;;15.77;12.65;;;;;;;34.14;16.10;100632.47;5070266;28;20408;-82
2021/04/17 07:50:15;;;;;;;16.23;13.32;;;;;;;35.25;15.57;100628.06;5108193;27;20354;-78
2021/04/17 07:53:00;;;;;;;11.23;10.02;;;;;;;33.69;16.68;100625.84;5110393;27;20367;-79
2021/04/17 07:55:43;;;;;;;19.35;13.02;;;;;;;34.36;15.87;100630.19;5071681;28;20373;-80
2021/04/17 07:58:45;;;;;;;14.65;12.20;;;;;;;32.81;16.96;100624.34;5108777;27;20367;-78
2021/04/17 08:01:30;;;;;;;19.60;14.65;;;;;;;31.49;18.49;100628.28;5111707;27;20709;-82
2021/04/17 08:04:46;;;;;;;12.98;11.20;;;;;;;31.35;17.89;100621.47;5110576;28;20043;-81
2021/04/17 08:07:52;;;;;;;11.45;10.02;;;;;;;30.18;18.85;100628.69;5106505;28;20051;-81
2021/04/17 08:10:56;;;;;;;11.57;9.93;;;;;;;29.55;19.44;100620.81;5108892;28;20059;-81
2021/04/17 08:14:01;;;;;;;12.18;9.40;;;;;;;29.88;19.44;100615.25;5108758;28;20059;-81
2021/04/17 08:17:05;;;;;;;11.63;10.20;;;;;;;27.80;21.65;100624.41;5108949;28;20043;-81
2021/04/17 08:20:13;;;;;;;11.07;9.63;;;;;;;30.12;19.59;100622.22;5108844;28;20081;-81
2021/04/17 08:23:19;;;;;;;13.82;9.32;;;;;;;30.48;19.21;100619.97;5111426;28;20390;-81
2021/04/17 08:26:23;;;;;;;11.60;9.38;;;;;;;30.61;19.12;100625.13;5111577;28;20383;-80
2021/04/17 08:29:48;;;;;;;10.00;8.75;;;;;;;30.35;18.36;100618.41;5111360;28;20051;-81
2021/04/17 08:32:53;;;;;;;10.98;9.20;;;;;;;29.88;19.43;100620.78;5111236;28;20051;-80
2021/04/17 08:35:57;;;;;;;11.73;9.20;;;;;;;29.56;19.44;100622.47;5111209;28;20059;-81
2021/04/17 08:39:02;;;;;;;10.55;9.45;;;;;;;29.25;19.75;100612.84;5110995;28;20051;-79
2021/04/17 08:42:15;;;;;;;12.30;9.20;;;;;;;28.62;20.26;100615.78;5110888;28;20059;-80
2021/04/17 08:45:20;;;;;;;14.07;10.27;;;;;;;29.10;19.58;100611.69;5110280;28;20063;-80
2021/04/17 08:49:04;;;;;;;13.38;9.63;;;;;;;27.02;21.40;100625.47;5111222;28;20055;-81
2021/04/17 08:52:08;;;;;;;14.32;10.20;;;;;;;23.89;24.88;100625.13;5110796;28;20043;-80
2021/04/17 08:55:17;;;;;;;12.23;10.65;;;;;;;22.18;27.09;100622.28;5110737;28;20497;-80
2021/04/17 08:58:23;;;;;;;11.98;10.77;;;;;;;20.89;28.82;100619.16;5110646;28;20043;-80
2021/04/17 09:01:27;;;;;;;14.43;10.75;;;;;;;21.11;29.20;100613.53;5109191;28;20043;-80
2021/04/17 09:04:35;;;;;;;12.68;10.40;;;;;;;19.67;31.25;100617.19;5110600;28;20067;-80
2021/04/17 09:07:43;;;;;;;17.20;11.02;;;;;;;18.60;32.72;100624.72;5110536;28;20482;-80
2021/04/17 09:10:47;;;;;;;14.23;11.45;;;;;;;17.28;34.92;100625.50;5108011;28;20047;-80
2021/04/17 09:13:53;;;;;;;14.68;11.68;;;;;;;17.10;35.35;100625.66;5095974;28;20052;-80
2021/04/17 09:17:00;;;;;;;15.90;11.60;;;;;;;16.49;35.30;100625.22;5096835;28;20379;-79
2021/04/17 09:20:13;;;;;;;15.48;11.93;;;;;;;16.28;36.20;100623.81;5096656;28;20055;-79
2021/04/17 09:23:39;;;;;;;16.70;11.95;;;;;;;16.24;37.25;100618.91;5096780;28;20051;-80
2021/04/17 09:26:49;;;;;;;14.20;12.57;;;;;;;15.90;37.83;100618.91;5096813;28;20051;-79
2021/04/17 09:30:00;;;;;;;14.35;12.30;;;;;;;15.73;38.69;100611.72;5096314;28;20047;-79
2021/04/17 09:33:05;;;;;;;18.67;12.35;;;;;;;16.07;38.32;100612.56;5096659;28;20051;-79
2021/04/17 09:36:20;;;;;;;16.48;12.77;;;;;;;16.41;37.81;100612.50;5096385;28;20106;-79
2021/04/17 09:39:32;;;;;;;15.75;12.82;;;;;;;16.67;37.57;100601.56;5096161;28;20039;-77
2021/04/17 09:42:38;;;;;;;15.70;12.93;;;;;;;16.64;38.31;100615.47;5096295;28;20418;-79
2021/04/17 09:45:45;;;;;;;17.85;13.63;;;;;;;16.77;37.86;100613.94;5095603;28;20344;-79
2021/04/17 09:48:50;;;;;;;18.88;14.50;;;;;;;16.11;39.15;100613.09;5096475;28;20047;-80
2021/04/17 09:51:55;;;;;;;16.75;14.73;;;;;;;15.92;40.13;100611.50;5095780;28;20071;-80
2021/04/17 09:55:05;;;;;;;15.00;13.18;;;;;;;16.47;39.23;100602.84;5095654;28;20490;-80
2021/04/17 09:58:09;;;;;;;19.88;13.95;;;;;;;16.54;39.74;100606.66;5096197;28;20055;-80
2021/04/17 10:01:16;;;;;;;19.48;13.25;;;;;;;16.68;39.08;100597.84;5094168;28;20509;-80
2021/04/17 10:04:54;;;;;;;18.00;13.95;;;;;;;16.80;38.99;100596.50;5095893;28;20051;-80
2021/04/17 10:07:59;;;;;;;17.42;12.98;;;;;;;17.20;37.88;100582.94;5095718;28;20383;-79
2021/04/17 10:11:04;;;;;;;20.42;14.82;;;;;;;16.74;37.77;100597.16;5095725;28;20481;-80
2021/04/17 10:14:10;;;;;;;20.45;15.20;;;;;;;16.12;39.14;100590.44;5095759;28;20379;-79
2021/04/17 10:17:15;;;;;;;18.88;14.85;;;;;;;16.20;39.95;100583.16;5095582;28;20043;-80
2021/04/17 10:20:32;;;;;;;20.15;15.82;;;;;;;15.96;40.15;100585.78;5094936;28;20043;-80
2021/04/17 10:23:36;;;;;;;18.77;15.45;;;;;;;15.91;39.46;100581.88;5094715;28;20051;-79
2021/04/17 10:26:53;;;;;;;16.98;14.15;;;;;;;15.69;39.92;100583.31;5094978;28;20055;-79
2021/04/17 10:29:58;;;;;;;17.55;13.95;;;;;;;15.57;40.49;100574.63;5095357;28;20043;-79
2021/04/17 10:33:03;;;;;;;18.20;14.70;;;;;;;15.37;42.26;100572.28;5094931;28;20076;-79
2021/04/17 10:36:16;;;;;;;22.70;16.70;;;;;;;14.87;41.46;100574.78;5094220;28;20047;-80
2021/04/17 10:39:20;;;;;;;17.73;14.95;;;;;;;14.79;41.39;100572.84;5095025;28;20058;-79
2021/04/17 10:42:25;;;;;;;20.33;16.50;;;;;;;14.56;42.32;100571.66;5095063;28;20043;-80
2021/04/17 10:45:29;;;;;;;18.85;15.50;;;;;;;14.53;42.65;100566.56;5095093;28;20047;-79
2021/04/17 10:48:44;;;;;;;18.77;15.20;;;;;;;14.31;42.41;100551.66;5094943;28;20055;-81
2021/04/17 10:51:48;;;;;;;24.85;16.30;;;;;;;14.23;42.99;100556.94;5094503;28;20493;-79
2021/04/17 10:54:54;;;;;;;17.98;15.25;;;;;;;14.19;43.08;100552.88;5094807;28;20047;-80
2021/04/17 10:57:58;;;;;;;18.25;14.32;;;;;;;14.56;42.65;100551.91;5095011;28;20043;-81
2021/04/17 11:01:09;;;;;;;18.73;13.30;;;;;;;14.57;42.56;100549.03;5094051;28;20400;-78
2021/04/17 11:04:14;;;;;;;12.57;11.25;;;;;;;14.56;39.78;100543.78;5094599;28;20055;-79
2021/04/17 11:07:19;;;;;;;17.67;15.35;;;;;;;14.31;39.73;100543.56;5093678;28;20048;-77
2021/04/17 11:10:29;;;;;;;11.85;9.60;;;;;;;14.51;36.16;100533.47;5094436;28;20043;-78
2021/04/17 11:13:37;;;;;;;11.65;9.65;;;;;;;14.72;38.47;100533.97;5094517;28;20055;-80
2021/04/17 11:16:45;;;;;;;12.60;10.10;;;;;;;14.67;38.23;100530.88;5094639;28;20047;-79
2021/04/17 11:19:50;;;;;;;11.05;9.57;;;;;;;14.66;38.09;100518.38;5094343;28;20118;-81
2021/04/17 11:22:54;;;;;;;14.82;9.40;;;;;;;14.68;37.88;100519.06;5094250;28;20451;-78
2021/04/17 11:26:04;;;;;;;11.40;9.77;;;;;;;14.56;37.65;100517.63;5093443;28;20050;-81
2021/04/17 11:29:08;;;;;;;11.43;9.38;;;;;;;14.62;36.68;100519.69;5087938;28;20046;-81
2021/04/17 11:32:13;;;;;;;12.50;9.07;;;;;;;14.52;38.26;100509.97;5085780;28;20051;-88
2021/04/17 11:35:17;;;;;;;15.98;11.43;;;;;;;14.40;39.45;100506.66;5090500;28;20517;-80
2021/04/17 11:38:21;;;;;;;16.77;12.57;;;;;;;14.23;38.90;100512.91;5093878;28;20047;-80
2021/04/17 11:41:26;;;;;;;21.10;11.90;;;;;;;14.34;38.81;100508.13;5089178;28;20055;-79
2021/04/17 11:44:30;;;;;;;14.35;9.60;;;;;;;14.62;39.45;100503.47;5091074;28;20051;-79
2021/04/17 11:47:37;;;;;;;13.73;10.55;;;;;;;14.70;40.51;100503.56;5091312;28;20055;-79
2021/04/17 11:50:41;;;;;;;11.32;10.00;;;;;;;14.71;39.26;100496.31;5091199;28;20048;-79
2021/04/17 11:53:46;;;;;;;13.63;9.50;;;;;;;14.65;38.09;100505.88;5091269;28;20036;-79
2021/04/17 11:56:51;;;;;;;11.82;10.10;;;;;;;14.57;37.87;100497.69;5092137;28;20055;-80
2021/04/17 11:59:55;;;;;;;12.15;9.80;;;;;;;14.73;38.57;100484.31;5091916;28;20153;-79
2021/04/17 12:03:00;;;;;;;11.30;8.73;;;;;;;14.71;37.28;100490.91;5092598;28;20052;-78
2021/04/17 12:06:07;;;;;;;10.02;8.07;;;;;;;15.06;37.02;100484.53;5093239;28;20047;-81
2021/04/17 12:09:11;;;;;;;11.18;8.15;;;;;;;14.99;35.72;100481.59;5094013;28;20051;-82
2021/04/17 12:12:16;;;;;;;14.55;9.50;;;;;;;14.88;37.57;100479.19;5093609;28;20494;-81
2021/04/17 12:15:21;;;;;;;12.73;9.40;;;;;;;14.84;37.57;100483.19;5093672;28;20043;-80
2021/04/17 12:18:25;;;;;;;9.93;8.90;;;;;;;14.62;37.17;100479.16;5093542;28;20047;-81
2021/04/17 12:21:30;;;;;;;15.10;9.25;;;;;;;14.83;36.81;100474.28;5093476;28;20047;-80
2021/04/17 12:24:33;;;;;;;12.73;8.80;;;;;;;14.76;37.08;100484.00;5093564;28;20379;-81
2021/04/17 12:27:38;;;;;;;10.75;8.65;;;;;;;14.92;36.53;100480.56;5093538;28;20048;-80
2021/04/17 12:30:43;;;;;;;10.63;8.65;;;;;;;15.07;36.98;100473.56;5093397;28;20043;-80
2021/04/17 12:33:47;;;;;;;10.80;8.05;;;;;;;15.14;36.18;100468.34;5093764;28;20522;-80
2021/04/17 12:36:52;;;;;;;12.88;8.13;;;;;;;15.16;36.08;100455.53;5093517;28;20047;-80
2021/04/17 12:39:57;;;;;;;13.13;8.02;;;;;;;14.80;36.84;100460.22;5093393;28;20387;-78
2021/04/17 12:43:01;;;;;;;10.98;8.05;;;;;;;14.60;36.58;100466.81;5093259;28;20047;-79
2021/04/17 12:46:05;;;;;;;11.30;8.60;;;;;;;14.44;36.61;100459.47;5093918;28;20051;-79
2021/04/17 12:49:10;;;;;;;10.70;8.50;;;;;;;14.53;36.59;100463.06;5097320;28;20470;-79
2021/04/17 12:52:14;;;;;;;10.38;8.30;;;;;;;14.63;37.94;100459.25;5090311;28;20047;-83
2021/04/17 12:55:18;;;;;;;9.73;8.07;;;;;;;14.66;36.63;100456.25;5096835;28;20063;-81
2021/04/17 12:58:22;;;;;;;8.82;7.15;;;;;;;14.78;35.88;100462.22;5091997;28;20055;-80
2021/04/17 13:01:27;;;;;;;9.45;7.75;;;;;;;14.93;36.05;100457.94;5095518;28;20062;-78
2021/04/17 13:04:31;;;;;;;10.73;8.40;;;;;;;15.15;37.13;100451.13;5096313;28;20584;-79
2021/04/17 13:07:35;;;;;;;11.27;8.15;;;;;;;14.90;36.13;100451.00;5093002;28;20047;-81
2021/04/17 13:10:39;;;;;;;11.82;7.40;;;;;;;14.97;37.72;100451.19;5096559;28;20059;-79
2021/04/17 13:13:44;;;;;;;9.10;6.80;;;;;;;15.10;37.45;100448.91;5087326;28;20399;-80
2021/04/17 13:16:49;;;;;;;10.07;7.18;;;;;;;15.17;38.03;100451.81;5076165;28;20048;-82
2021/04/17 13:19:53;;;;;;;7.90;7.07;;;;;;;15.12;37.40;100438.78;5077222;28;20051;-80
2021/04/17 13:22:57;;;;;;;13.07;8.50;;;;;;;14.90;39.79;100448.28;5075352;28;20502;-81
2021/04/17 13:26:02;;;;;;;11.07;8.00;;;;;;;14.57;40.85;100440.13;5086626;28;20047;-80